sensor_id;sensor_type;location;lat;lon;timestamp;P1;durP1;ratioP1;P2;durP2;ratioP2
39738;SDS011;25422;48.286;8.484;2023-01-29T00:00:38;27.77;;;15.00;;
39738;SDS011;25422;48.286;8.484;2023-01-29T00:03:03;26.02;;;15.25;;
39738;SDS011;25422;48.286;8.484;2023-01-29T00:05:29;26.80;;;15.70;;
39738;SDS011;25422;48.286;8.484;2023-01-29T00:07:55;23.88;;;13.70;;
39738;SDS011;25422;48.286;8.484;2023-01-29T00:10:22;25.60;;;14.55;;
39738;SDS011;25422;48.286;8.484;2023-01-29T00:12:48;26.48;;;14.98;;
39738;SDS011;25422;48.286;8.484;2023-01-29T00:15:16;31.67;;;17.85;;
39738;SDS011;25422;48.286;8.484;2023-01-29T00:17:41;28.42;;;16.98;;
39738;SDS011;25422;48.286;8.484;2023-01-29T00:20:07;27.17;;;15.35;;
39738;SDS011;25422;48.286;8.484;2023-01-29T00:22:33;23.60;;;14.05;;
39738;SDS011;25422;48.286;8.484;2023-01-29T00:24:58;23.75;;;13.65;;
39738;SDS011;25422;48.286;8.484;2023-01-29T00:27:24;23.23;;;13.75;;
39738;SDS011;25422;48.286;8.484;2023-01-29T00:29:49;22.88;;;14.05;;
39738;SDS011;25422;48.286;8.484;2023-01-29T00:32:33;23.23;;;14.20;;
39738;SDS011;25422;48.286;8.484;2023-01-29T00:34:59;25.48;;;14.82;;
39738;SDS011;25422;48.286;8.484;2023-01-29T00:37:24;26.75;;;15.73;;
39738;SDS011;25422;48.286;8.484;2023-01-29T00:39:50;23.70;;;14.98;;
39738;SDS011;25422;48.286;8.484;2023-01-29T00:42:15;23.20;;;14.40;;
39738;SDS011;25422;48.286;8.484;2023-01-29T00:44:59;23.13;;;14.60;;
39738;SDS011;25422;48.286;8.484;2023-01-29T00:47:24;23.85;;;13.52;;
39738;SDS011;25422;48.286;8.484;2023-01-29T00:50:00;24.80;;;14.85;;
39738;SDS011;25422;48.286;8.484;2023-01-29T00:52:26;23.98;;;13.90;;
39738;SDS011;25422;48.286;8.484;2023-01-29T00:54:53;23.35;;;13.43;;
39738;SDS011;25422;48.286;8.484;2023-01-29T00:57:20;23.38;;;14.82;;
39738;SDS011;25422;48.286;8.484;2023-01-29T00:59:46;25.30;;;15.73;;
39738;SDS011;25422;48.286;8.484;2023-01-29T01:02:11;47.38;;;24.00;;
39738;SDS011;25422;48.286;8.484;2023-01-29T01:04:56;30.35;;;17.58;;
39738;SDS011;25422;48.286;8.484;2023-01-29T01:07:21;29.70;;;16.92;;
39738;SDS011;25422;48.286;8.484;2023-01-29T01:09:48;29.63;;;18.00;;
39738;SDS011;25422;48.286;8.484;2023-01-29T01:12:33;25.85;;;17.05;;
39738;SDS011;25422;48.286;8.484;2023-01-29T01:14:58;23.17;;;14.63;;
39738;SDS011;25422;48.286;8.484;2023-01-29T01:17:24;19.65;;;13.55;;
39738;SDS011;25422;48.286;8.484;2023-01-29T01:19:49;25.25;;;13.90;;
39738;SDS011;25422;48.286;8.484;2023-01-29T01:22:15;27.67;;;14.98;;
39738;SDS011;25422;48.286;8.484;2023-01-29T01:24:42;24.73;;;14.48;;
39738;SDS011;25422;48.286;8.484;2023-01-29T01:27:08;33.30;;;18.23;;
39738;SDS011;25422;48.286;8.484;2023-01-29T01:29:33;27.02;;;14.10;;
39738;SDS011;25422;48.286;8.484;2023-01-29T01:31:59;18.92;;;12.63;;
39738;SDS011;25422;48.286;8.484;2023-01-29T01:34:24;27.13;;;14.55;;
39738;SDS011;25422;48.286;8.484;2023-01-29T01:36:51;26.33;;;14.32;;
39738;SDS011;25422;48.286;8.484;2023-01-29T01:39:17;26.95;;;15.82;;
39738;SDS011;25422;48.286;8.484;2023-01-29T01:41:43;29.85;;;17.80;;
39738;SDS011;25422;48.286;8.484;2023-01-29T01:47:11;28.00;;;14.73;;
39738;SDS011;25422;48.286;8.484;2023-01-29T01:49:38;21.48;;;13.07;;
39738;SDS011;25422;48.286;8.484;2023-01-29T01:52:04;19.08;;;12.50;;
39738;SDS011;25422;48.286;8.484;2023-01-29T01:54:30;20.10;;;12.15;;
39738;SDS011;25422;48.286;8.484;2023-01-29T01:57:02;23.90;;;14.73;;
39738;SDS011;25422;48.286;8.484;2023-01-29T01:59:39;30.05;;;16.85;;
39738;SDS011;25422;48.286;8.484;2023-01-29T02:02:38;24.90;;;14.93;;
39738;SDS011;25422;48.286;8.484;2023-01-29T02:05:26;21.60;;;13.85;;
39738;SDS011;25422;48.286;8.484;2023-01-29T02:08:12;26.10;;;14.55;;
39738;SDS011;25422;48.286;8.484;2023-01-29T02:10:58;27.33;;;14.57;;
39738;SDS011;25422;48.286;8.484;2023-01-29T02:13:25;24.92;;;15.48;;
39738;SDS011;25422;48.286;8.484;2023-01-29T02:15:51;25.30;;;15.15;;
39738;SDS011;25422;48.286;8.484;2023-01-29T02:18:17;24.20;;;16.23;;
39738;SDS011;25422;48.286;8.484;2023-01-29T02:20:48;24.55;;;15.63;;
39738;SDS011;25422;48.286;8.484;2023-01-29T02:23:42;22.55;;;14.07;;
39738;SDS011;25422;48.286;8.484;2023-01-29T02:26:18;24.13;;;14.52;;
39738;SDS011;25422;48.286;8.484;2023-01-29T02:29:09;23.33;;;15.07;;
39738;SDS011;25422;48.286;8.484;2023-01-29T02:37:56;39.65;;;20.70;;
39738;SDS011;25422;48.286;8.484;2023-01-29T02:40:37;29.55;;;16.98;;
39738;SDS011;25422;48.286;8.484;2023-01-29T02:43:06;33.17;;;19.70;;
39738;SDS011;25422;48.286;8.484;2023-01-29T02:45:53;22.50;;;14.07;;
39738;SDS011;25422;48.286;8.484;2023-01-29T02:48:28;22.67;;;14.23;;
39738;SDS011;25422;48.286;8.484;2023-01-29T02:51:13;21.80;;;14.18;;
39738;SDS011;25422;48.286;8.484;2023-01-29T02:54:03;27.00;;;16.40;;
39738;SDS011;25422;48.286;8.484;2023-01-29T02:56:33;20.10;;;13.27;;
39738;SDS011;25422;48.286;8.484;2023-01-29T02:59:12;23.42;;;14.65;;
39738;SDS011;25422;48.286;8.484;2023-01-29T03:01:47;20.27;;;13.70;;
39738;SDS011;25422;48.286;8.484;2023-01-29T03:04:27;50.85;;;22.42;;
39738;SDS011;25422;48.286;8.484;2023-01-29T03:07:06;67.75;;;29.45;;
39738;SDS011;25422;48.286;8.484;2023-01-29T03:09:57;33.28;;;17.58;;
39738;SDS011;25422;48.286;8.484;2023-01-29T03:12:24;41.72;;;21.25;;
39738;SDS011;25422;48.286;8.484;2023-01-29T03:15:10;40.08;;;19.40;;
39738;SDS011;25422;48.286;8.484;2023-01-29T03:18:00;21.13;;;12.00;;
39738;SDS011;25422;48.286;8.484;2023-01-29T03:20:32;20.85;;;13.80;;
39738;SDS011;25422;48.286;8.484;2023-01-29T03:23:06;35.70;;;18.90;;
39738;SDS011;25422;48.286;8.484;2023-01-29T03:25:37;55.35;;;25.27;;
39738;SDS011;25422;48.286;8.484;2023-01-29T03:28:28;26.58;;;16.20;;
39738;SDS011;25422;48.286;8.484;2023-01-29T03:31:13;35.33;;;18.42;;
39738;SDS011;25422;48.286;8.484;2023-01-29T03:34:08;22.77;;;13.68;;
39738;SDS011;25422;48.286;8.484;2023-01-29T03:36:42;22.40;;;12.48;;
39738;SDS011;25422;48.286;8.484;2023-01-29T03:39:15;19.80;;;12.23;;
39738;SDS011;25422;48.286;8.484;2023-01-29T03:41:52;27.77;;;15.82;;
39738;SDS011;25422;48.286;8.484;2023-01-29T03:44:32;40.83;;;19.17;;
39738;SDS011;25422;48.286;8.484;2023-01-29T03:49:55;32.10;;;17.30;;
39738;SDS011;25422;48.286;8.484;2023-01-29T03:55:23;23.08;;;13.88;;
39738;SDS011;25422;48.286;8.484;2023-01-29T04:00:44;18.40;;;12.30;;
39738;SDS011;25422;48.286;8.484;2023-01-29T04:03:36;26.10;;;15.27;;
39738;SDS011;25422;48.286;8.484;2023-01-29T04:06:15;34.38;;;16.75;;
39738;SDS011;25422;48.286;8.484;2023-01-29T04:09:00;38.08;;;20.05;;
39738;SDS011;25422;48.286;8.484;2023-01-29T04:11:31;36.95;;;17.92;;
39738;SDS011;25422;48.286;8.484;2023-01-29T04:14:00;32.83;;;18.30;;
39738;SDS011;25422;48.286;8.484;2023-01-29T04:16:30;26.30;;;17.23;;
39738;SDS011;25422;48.286;8.484;2023-01-29T04:19:25;22.35;;;13.93;;
39738;SDS011;25422;48.286;8.484;2023-01-29T04:21:52;22.67;;;14.60;;
39738;SDS011;25422;48.286;8.484;2023-01-29T04:24:26;23.55;;;14.32;;
39738;SDS011;25422;48.286;8.484;2023-01-29T04:35:31;24.17;;;14.73;;
39738;SDS011;25422;48.286;8.484;2023-01-29T04:38:08;21.73;;;14.23;;
39738;SDS011;25422;48.286;8.484;2023-01-29T04:43:29;93.00;;;33.70;;
39738;SDS011;25422;48.286;8.484;2023-01-29T04:46:31;87.75;;;32.17;;
39738;SDS011;25422;48.286;8.484;2023-01-29T04:49:12;32.72;;;15.05;;
39738;SDS011;25422;48.286;8.484;2023-01-29T04:51:42;40.03;;;22.92;;
39738;SDS011;25422;48.286;8.484;2023-01-29T04:54:39;22.30;;;13.38;;
39738;SDS011;25422;48.286;8.484;2023-01-29T04:59:50;19.27;;;12.98;;
39738;SDS011;25422;48.286;8.484;2023-01-29T05:02:23;19.30;;;11.68;;
39738;SDS011;25422;48.286;8.484;2023-01-29T05:04:51;16.38;;;10.77;;
39738;SDS011;25422;48.286;8.484;2023-01-29T05:07:18;16.15;;;10.93;;
39738;SDS011;25422;48.286;8.484;2023-01-29T05:09:45;36.85;;;18.98;;
39738;SDS011;25422;48.286;8.484;2023-01-29T05:12:13;26.13;;;15.55;;
39738;SDS011;25422;48.286;8.484;2023-01-29T05:14:41;18.80;;;11.30;;
39738;SDS011;25422;48.286;8.484;2023-01-29T05:17:11;23.00;;;14.13;;
39738;SDS011;25422;48.286;8.484;2023-01-29T05:19:40;22.48;;;13.73;;
39738;SDS011;25422;48.286;8.484;2023-01-29T05:22:06;19.23;;;11.93;;
39738;SDS011;25422;48.286;8.484;2023-01-29T05:24:35;15.13;;;10.00;;
39738;SDS011;25422;48.286;8.484;2023-01-29T05:27:02;31.50;;;17.92;;
39738;SDS011;25422;48.286;8.484;2023-01-29T05:29:46;38.92;;;20.52;;
39738;SDS011;25422;48.286;8.484;2023-01-29T05:32:12;73.22;;;35.88;;
39738;SDS011;25422;48.286;8.484;2023-01-29T05:34:39;22.20;;;13.13;;
39738;SDS011;25422;48.286;8.484;2023-01-29T05:37:04;18.95;;;13.07;;
39738;SDS011;25422;48.286;8.484;2023-01-29T05:39:30;17.27;;;11.90;;
39738;SDS011;25422;48.286;8.484;2023-01-29T05:41:55;17.33;;;12.57;;
39738;SDS011;25422;48.286;8.484;2023-01-29T05:44:21;16.00;;;11.00;;
39738;SDS011;25422;48.286;8.484;2023-01-29T05:46:46;17.20;;;11.90;;
39738;SDS011;25422;48.286;8.484;2023-01-29T05:49:12;18.60;;;11.88;;
39738;SDS011;25422;48.286;8.484;2023-01-29T05:51:37;17.92;;;12.07;;
39738;SDS011;25422;48.286;8.484;2023-01-29T05:54:03;15.73;;;11.18;;
39738;SDS011;25422;48.286;8.484;2023-01-29T05:56:29;20.35;;;12.98;;
39738;SDS011;25422;48.286;8.484;2023-01-29T05:58:54;20.35;;;13.02;;
39738;SDS011;25422;48.286;8.484;2023-01-29T06:01:21;20.38;;;12.85;;
39738;SDS011;25422;48.286;8.484;2023-01-29T06:03:48;17.75;;;12.07;;
39738;SDS011;25422;48.286;8.484;2023-01-29T06:06:14;18.45;;;12.20;;
39738;SDS011;25422;48.286;8.484;2023-01-29T06:08:40;17.35;;;11.15;;
39738;SDS011;25422;48.286;8.484;2023-01-29T06:11:07;16.48;;;10.55;;
39738;SDS011;25422;48.286;8.484;2023-01-29T06:13:33;17.85;;;11.63;;
39738;SDS011;25422;48.286;8.484;2023-01-29T06:15:59;16.33;;;10.95;;
39738;SDS011;25422;48.286;8.484;2023-01-29T06:18:24;22.73;;;13.63;;
39738;SDS011;25422;48.286;8.484;2023-01-29T06:20:49;15.27;;;10.32;;
39738;SDS011;25422;48.286;8.484;2023-01-29T06:23:15;14.82;;;9.80;;
39738;SDS011;25422;48.286;8.484;2023-01-29T06:25:40;14.43;;;10.02;;
39738;SDS011;25422;48.286;8.484;2023-01-29T06:28:06;22.00;;;10.88;;
39738;SDS011;25422;48.286;8.484;2023-01-29T06:30:31;18.98;;;11.35;;
39738;SDS011;25422;48.286;8.484;2023-01-29T06:32:57;19.42;;;12.35;;
39738;SDS011;25422;48.286;8.484;2023-01-29T06:35:23;16.83;;;9.77;;
39738;SDS011;25422;48.286;8.484;2023-01-29T06:37:49;15.98;;;10.23;;
39738;SDS011;25422;48.286;8.484;2023-01-29T06:40:14;16.77;;;10.02;;
39738;SDS011;25422;48.286;8.484;2023-01-29T06:42:40;14.30;;;9.65;;
39738;SDS011;25422;48.286;8.484;2023-01-29T06:45:06;19.08;;;12.00;;
39738;SDS011;25422;48.286;8.484;2023-01-29T06:47:32;15.70;;;10.25;;
39738;SDS011;25422;48.286;8.484;2023-01-29T06:49:58;16.67;;;10.70;;
39738;SDS011;25422;48.286;8.484;2023-01-29T06:52:26;17.55;;;11.32;;
39738;SDS011;25422;48.286;8.484;2023-01-29T06:54:55;16.08;;;11.05;;
39738;SDS011;25422;48.286;8.484;2023-01-29T06:57:21;15.15;;;10.40;;
39738;SDS011;25422;48.286;8.484;2023-01-29T06:59:47;16.63;;;10.95;;
39738;SDS011;25422;48.286;8.484;2023-01-29T07:02:12;16.83;;;10.95;;
39738;SDS011;25422;48.286;8.484;2023-01-29T07:04:38;17.60;;;10.52;;
39738;SDS011;25422;48.286;8.484;2023-01-29T07:07:05;16.48;;;10.07;;
39738;SDS011;25422;48.286;8.484;2023-01-29T07:09:36;18.20;;;10.63;;
39738;SDS011;25422;48.286;8.484;2023-01-29T07:12:02;16.92;;;11.00;;
39738;SDS011;25422;48.286;8.484;2023-01-29T07:14:28;17.92;;;11.57;;
39738;SDS011;25422;48.286;8.484;2023-01-29T07:16:54;15.95;;;11.45;;
39738;SDS011;25422;48.286;8.484;2023-01-29T07:19:19;16.83;;;11.73;;
39738;SDS011;25422;48.286;8.484;2023-01-29T07:21:44;16.98;;;11.10;;
39738;SDS011;25422;48.286;8.484;2023-01-29T07:24:10;16.17;;;11.15;;
39738;SDS011;25422;48.286;8.484;2023-01-29T07:26:35;15.90;;;10.65;;
39738;SDS011;25422;48.286;8.484;2023-01-29T07:29:01;14.60;;;9.48;;
39738;SDS011;25422;48.286;8.484;2023-01-29T07:31:26;13.32;;;9.77;;
39738;SDS011;25422;48.286;8.484;2023-01-29T07:33:52;16.67;;;11.48;;
39738;SDS011;25422;48.286;8.484;2023-01-29T07:36:17;14.57;;;10.15;;
39738;SDS011;25422;48.286;8.484;2023-01-29T07:38:43;14.20;;;10.30;;
39738;SDS011;25422;48.286;8.484;2023-01-29T07:43:37;15.18;;;9.82;;
39738;SDS011;25422;48.286;8.484;2023-01-29T07:46:03;17.08;;;10.48;;
39738;SDS011;25422;48.286;8.484;2023-01-29T07:48:29;19.30;;;12.57;;
39738;SDS011;25422;48.286;8.484;2023-01-29T07:50:54;21.95;;;13.85;;
39738;SDS011;25422;48.286;8.484;2023-01-29T07:53:21;18.83;;;11.70;;
39738;SDS011;25422;48.286;8.484;2023-01-29T07:55:46;35.95;;;18.42;;
39738;SDS011;25422;48.286;8.484;2023-01-29T07:58:12;18.00;;;10.63;;
39738;SDS011;25422;48.286;8.484;2023-01-29T08:00:37;64.50;;;29.25;;
39738;SDS011;25422;48.286;8.484;2023-01-29T08:03:03;43.35;;;29.30;;
39738;SDS011;25422;48.286;8.484;2023-01-29T08:05:30;24.58;;;14.95;;
39738;SDS011;25422;48.286;8.484;2023-01-29T08:07:56;13.70;;;9.43;;
39738;SDS011;25422;48.286;8.484;2023-01-29T08:10:22;11.23;;;8.20;;
39738;SDS011;25422;48.286;8.484;2023-01-29T08:12:52;13.27;;;9.40;;
39738;SDS011;25422;48.286;8.484;2023-01-29T08:15:18;11.15;;;8.68;;
39738;SDS011;25422;48.286;8.484;2023-01-29T08:17:43;12.52;;;8.30;;
39738;SDS011;25422;48.286;8.484;2023-01-29T08:20:09;12.50;;;8.98;;
39738;SDS011;25422;48.286;8.484;2023-01-29T08:22:35;12.15;;;8.65;;
39738;SDS011;25422;48.286;8.484;2023-01-29T08:25:00;9.95;;;7.65;;
39738;SDS011;25422;48.286;8.484;2023-01-29T08:27:25;10.63;;;7.60;;
39738;SDS011;25422;48.286;8.484;2023-01-29T08:29:51;10.23;;;7.82;;
39738;SDS011;25422;48.286;8.484;2023-01-29T08:32:16;10.48;;;7.72;;
39738;SDS011;25422;48.286;8.484;2023-01-29T08:34:42;15.88;;;10.05;;
39738;SDS011;25422;48.286;8.484;2023-01-29T08:37:07;22.15;;;14.43;;
39738;SDS011;25422;48.286;8.484;2023-01-29T08:39:32;12.20;;;8.45;;
39738;SDS011;25422;48.286;8.484;2023-01-29T08:41:58;12.07;;;7.85;;
39738;SDS011;25422;48.286;8.484;2023-01-29T08:44:23;9.90;;;6.55;;
39738;SDS011;25422;48.286;8.484;2023-01-29T08:46:48;13.32;;;9.35;;
39738;SDS011;25422;48.286;8.484;2023-01-29T08:49:14;12.75;;;7.57;;
39738;SDS011;25422;48.286;8.484;2023-01-29T08:51:39;9.57;;;6.85;;
39738;SDS011;25422;48.286;8.484;2023-01-29T08:54:05;10.10;;;6.68;;
39738;SDS011;25422;48.286;8.484;2023-01-29T08:56:30;11.50;;;9.10;;
39738;SDS011;25422;48.286;8.484;2023-01-29T08:58:55;8.50;;;6.47;;
39738;SDS011;25422;48.286;8.484;2023-01-29T09:01:21;10.18;;;6.97;;
39738;SDS011;25422;48.286;8.484;2023-01-29T09:03:46;8.15;;;6.43;;
39738;SDS011;25422;48.286;8.484;2023-01-29T09:06:12;8.52;;;6.22;;
39738;SDS011;25422;48.286;8.484;2023-01-29T09:08:38;8.65;;;6.20;;
39738;SDS011;25422;48.286;8.484;2023-01-29T09:11:04;9.55;;;6.72;;
39738;SDS011;25422;48.286;8.484;2023-01-29T09:13:30;9.40;;;6.85;;
39738;SDS011;25422;48.286;8.484;2023-01-29T09:15:59;9.73;;;7.78;;
39738;SDS011;25422;48.286;8.484;2023-01-29T09:20:51;11.57;;;6.72;;
39738;SDS011;25422;48.286;8.484;2023-01-29T09:23:17;9.85;;;6.45;;
39738;SDS011;25422;48.286;8.484;2023-01-29T09:25:43;8.68;;;6.25;;
39738;SDS011;25422;48.286;8.484;2023-01-29T09:28:08;8.02;;;6.90;;
39738;SDS011;25422;48.286;8.484;2023-01-29T09:30:34;9.88;;;6.70;;
39738;SDS011;25422;48.286;8.484;2023-01-29T09:33:01;7.93;;;6.45;;
39738;SDS011;25422;48.286;8.484;2023-01-29T09:35:30;11.77;;;7.05;;
39738;SDS011;25422;48.286;8.484;2023-01-29T09:37:56;23.75;;;10.07;;
39738;SDS011;25422;48.286;8.484;2023-01-29T09:40:26;15.27;;;7.72;;
39738;SDS011;25422;48.286;8.484;2023-01-29T09:43:02;10.00;;;7.18;;
39738;SDS011;25422;48.286;8.484;2023-01-29T09:45:31;7.93;;;5.97;;
39738;SDS011;25422;48.286;8.484;2023-01-29T09:48:00;8.45;;;5.28;;
39738;SDS011;25422;48.286;8.484;2023-01-29T09:50:43;5.90;;;4.60;;
39738;SDS011;25422;48.286;8.484;2023-01-29T09:53:17;5.93;;;4.18;;
39738;SDS011;25422;48.286;8.484;2023-01-29T09:55:53;5.35;;;4.70;;
39738;SDS011;25422;48.286;8.484;2023-01-29T09:58:29;6.60;;;5.20;;
39738;SDS011;25422;48.286;8.484;2023-01-29T10:00:59;9.35;;;5.32;;
39738;SDS011;25422;48.286;8.484;2023-01-29T10:06:14;5.45;;;4.45;;
39738;SDS011;25422;48.286;8.484;2023-01-29T10:23:23;5.55;;;4.90;;
39738;SDS011;25422;48.286;8.484;2023-01-29T10:25:53;5.57;;;4.97;;
39738;SDS011;25422;48.286;8.484;2023-01-29T10:28:22;5.40;;;4.47;;
39738;SDS011;25422;48.286;8.484;2023-01-29T10:30:56;5.55;;;4.35;;
39738;SDS011;25422;48.286;8.484;2023-01-29T10:33:32;7.43;;;5.38;;
39738;SDS011;25422;48.286;8.484;2023-01-29T10:36:05;4.88;;;4.38;;
39738;SDS011;25422;48.286;8.484;2023-01-29T10:38:46;5.72;;;4.75;;
39738;SDS011;25422;48.286;8.484;2023-01-29T10:55:18;5.88;;;4.50;;
39738;SDS011;25422;48.286;8.484;2023-01-29T11:00:32;6.63;;;5.20;;
39738;SDS011;25422;48.286;8.484;2023-01-29T11:03:15;5.75;;;4.75;;
39738;SDS011;25422;48.286;8.484;2023-01-29T11:11:31;5.05;;;4.18;;
39738;SDS011;25422;48.286;8.484;2023-01-29T11:14:11;5.83;;;4.87;;
39738;SDS011;25422;48.286;8.484;2023-01-29T11:16:41;5.82;;;4.00;;
39738;SDS011;25422;48.286;8.484;2023-01-29T11:19:08;5.80;;;4.25;;
39738;SDS011;25422;48.286;8.484;2023-01-29T11:21:49;5.35;;;4.70;;
39738;SDS011;25422;48.286;8.484;2023-01-29T11:24:22;7.32;;;4.57;;
39738;SDS011;25422;48.286;8.484;2023-01-29T11:26:48;6.05;;;4.80;;
39738;SDS011;25422;48.286;8.484;2023-01-29T11:32:03;5.88;;;5.05;;
39738;SDS011;25422;48.286;8.484;2023-01-29T11:34:31;5.47;;;4.85;;
39738;SDS011;25422;48.286;8.484;2023-01-29T11:36:58;7.15;;;5.05;;
39738;SDS011;25422;48.286;8.484;2023-01-29T11:39:29;6.45;;;5.28;;
39738;SDS011;25422;48.286;8.484;2023-01-29T11:42:00;5.32;;;4.70;;
39738;SDS011;25422;48.286;8.484;2023-01-29T11:46:56;5.78;;;4.85;;
39738;SDS011;25422;48.286;8.484;2023-01-29T11:49:34;6.95;;;5.18;;
39738;SDS011;25422;48.286;8.484;2023-01-29T11:52:01;8.88;;;7.25;;
39738;SDS011;25422;48.286;8.484;2023-01-29T11:54:33;8.02;;;6.88;;
39738;SDS011;25422;48.286;8.484;2023-01-29T11:57:05;6.65;;;5.95;;
39738;SDS011;25422;48.286;8.484;2023-01-29T11:59:48;12.82;;;11.50;;
39738;SDS011;25422;48.286;8.484;2023-01-29T12:04:55;6.00;;;5.15;;
39738;SDS011;25422;48.286;8.484;2023-01-29T12:07:24;4.63;;;4.20;;
39738;SDS011;25422;48.286;8.484;2023-01-29T12:09:54;6.20;;;5.28;;
39738;SDS011;25422;48.286;8.484;2023-01-29T12:17:41;7.65;;;4.68;;
39738;SDS011;25422;48.286;8.484;2023-01-29T12:20:16;5.70;;;4.75;;
39738;SDS011;25422;48.286;8.484;2023-01-29T12:23:03;8.70;;;6.30;;
39738;SDS011;25422;48.286;8.484;2023-01-29T12:25:46;7.43;;;5.72;;
39738;SDS011;25422;48.286;8.484;2023-01-29T12:31:23;5.40;;;4.60;;
39738;SDS011;25422;48.286;8.484;2023-01-29T12:39:54;7.85;;;5.28;;
39738;SDS011;25422;48.286;8.484;2023-01-29T12:42:20;7.18;;;5.20;;
39738;SDS011;25422;48.286;8.484;2023-01-29T12:44:51;6.53;;;5.00;;
39738;SDS011;25422;48.286;8.484;2023-01-29T12:47:32;5.35;;;4.82;;
39738;SDS011;25422;48.286;8.484;2023-01-29T12:50:04;6.25;;;4.70;;
39738;SDS011;25422;48.286;8.484;2023-01-29T12:56:32;5.45;;;4.85;;
39738;SDS011;25422;48.286;8.484;2023-01-29T12:58:58;6.30;;;5.15;;
39738;SDS011;25422;48.286;8.484;2023-01-29T13:04:07;10.75;;;6.82;;
39738;SDS011;25422;48.286;8.484;2023-01-29T13:06:46;8.05;;;6.22;;
39738;SDS011;25422;48.286;8.484;2023-01-29T13:09:18;7.00;;;5.18;;
39738;SDS011;25422;48.286;8.484;2023-01-29T13:11:50;7.65;;;5.88;;
39738;SDS011;25422;48.286;8.484;2023-01-29T13:17:31;9.15;;;5.55;;
39738;SDS011;25422;48.286;8.484;2023-01-29T13:20:07;8.38;;;5.63;;
39738;SDS011;25422;48.286;8.484;2023-01-29T13:22:41;7.53;;;5.97;;
39738;SDS011;25422;48.286;8.484;2023-01-29T13:25:13;7.65;;;5.95;;
39738;SDS011;25422;48.286;8.484;2023-01-29T13:27:41;8.38;;;5.18;;
39738;SDS011;25422;48.286;8.484;2023-01-29T13:30:07;7.57;;;5.93;;
39738;SDS011;25422;48.286;8.484;2023-01-29T13:32:50;7.13;;;5.60;;
39738;SDS011;25422;48.286;8.484;2023-01-29T13:35:18;7.70;;;5.80;;
39738;SDS011;25422;48.286;8.484;2023-01-29T13:37:47;8.80;;;5.95;;
39738;SDS011;25422;48.286;8.484;2023-01-29T13:40:24;6.50;;;5.15;;
39738;SDS011;25422;48.286;8.484;2023-01-29T13:42:53;6.40;;;5.15;;
39738;SDS011;25422;48.286;8.484;2023-01-29T13:45:22;7.07;;;5.28;;
39738;SDS011;25422;48.286;8.484;2023-01-29T13:47:50;7.82;;;6.00;;
39738;SDS011;25422;48.286;8.484;2023-01-29T13:50:18;6.55;;;5.07;;
39738;SDS011;25422;48.286;8.484;2023-01-29T13:52:56;7.72;;;5.40;;
39738;SDS011;25422;48.286;8.484;2023-01-29T13:55:28;6.75;;;5.60;;
39738;SDS011;25422;48.286;8.484;2023-01-29T13:57:57;8.90;;;6.45;;
39738;SDS011;25422;48.286;8.484;2023-01-29T14:10:38;7.30;;;5.60;;
39738;SDS011;25422;48.286;8.484;2023-01-29T14:15:41;8.48;;;5.82;;
39738;SDS011;25422;48.286;8.484;2023-01-29T14:20:34;6.72;;;5.05;;
39738;SDS011;25422;48.286;8.484;2023-01-29T14:23:05;8.18;;;6.00;;
39738;SDS011;25422;48.286;8.484;2023-01-29T14:25:43;7.28;;;5.35;;
39738;SDS011;25422;48.286;8.484;2023-01-29T14:28:14;6.95;;;5.57;;
39738;SDS011;25422;48.286;8.484;2023-01-29T14:30:45;8.38;;;6.03;;
39738;SDS011;25422;48.286;8.484;2023-01-29T14:33:32;9.02;;;6.72;;
39738;SDS011;25422;48.286;8.484;2023-01-29T14:36:05;31.75;;;23.63;;
39738;SDS011;25422;48.286;8.484;2023-01-29T14:38:34;18.60;;;14.23;;
39738;SDS011;25422;48.286;8.484;2023-01-29T14:41:03;36.47;;;19.95;;
39738;SDS011;25422;48.286;8.484;2023-01-29T14:43:33;47.25;;;24.92;;
39738;SDS011;25422;48.286;8.484;2023-01-29T14:46:40;34.85;;;21.48;;
39738;SDS011;25422;48.286;8.484;2023-01-29T14:48:59;15.20;;;8.63;;
39738;SDS011;25422;48.286;8.484;2023-01-29T14:51:25;8.10;;;6.13;;
39738;SDS011;25422;48.286;8.484;2023-01-29T14:54:04;20.75;;;10.77;;
39738;SDS011;25422;48.286;8.484;2023-01-29T14:56:57;8.68;;;6.13;;
39738;SDS011;25422;48.286;8.484;2023-01-29T14:59:26;10.20;;;6.38;;
39738;SDS011;25422;48.286;8.484;2023-01-29T15:01:57;8.82;;;6.30;;
39738;SDS011;25422;48.286;8.484;2023-01-29T15:04:33;9.00;;;5.82;;
39738;SDS011;25422;48.286;8.484;2023-01-29T15:09:53;9.05;;;6.57;;
39738;SDS011;25422;48.286;8.484;2023-01-29T15:14:59;9.15;;;5.82;;
39738;SDS011;25422;48.286;8.484;2023-01-29T15:17:35;9.25;;;6.40;;
39738;SDS011;25422;48.286;8.484;2023-01-29T15:20:24;10.00;;;7.88;;
39738;SDS011;25422;48.286;8.484;2023-01-29T15:22:58;8.30;;;6.18;;
39738;SDS011;25422;48.286;8.484;2023-01-29T15:25:28;8.73;;;6.05;;
39738;SDS011;25422;48.286;8.484;2023-01-29T15:27:58;8.00;;;6.32;;
39738;SDS011;25422;48.286;8.484;2023-01-29T15:30:28;8.48;;;6.35;;
39738;SDS011;25422;48.286;8.484;2023-01-29T15:32:57;9.63;;;6.88;;
39738;SDS011;25422;48.286;8.484;2023-01-29T15:38:06;5.65;;;4.28;;
39738;SDS011;25422;48.286;8.484;2023-01-29T15:40:32;8.80;;;5.90;;
39738;SDS011;25422;48.286;8.484;2023-01-29T15:42:58;8.70;;;6.32;;
39738;SDS011;25422;48.286;8.484;2023-01-29T15:45:30;14.35;;;6.10;;
39738;SDS011;25422;48.286;8.484;2023-01-29T15:48:04;9.77;;;7.00;;
39738;SDS011;25422;48.286;8.484;2023-01-29T15:50:38;10.25;;;6.00;;
39738;SDS011;25422;48.286;8.484;2023-01-29T15:53:07;6.72;;;5.35;;
39738;SDS011;25422;48.286;8.484;2023-01-29T15:55:37;10.35;;;6.25;;
39738;SDS011;25422;48.286;8.484;2023-01-29T15:58:04;8.30;;;6.30;;
39738;SDS011;25422;48.286;8.484;2023-01-29T16:00:31;9.85;;;6.07;;
39738;SDS011;25422;48.286;8.484;2023-01-29T16:02:57;8.70;;;6.10;;
39738;SDS011;25422;48.286;8.484;2023-01-29T16:05:26;9.85;;;6.68;;
39738;SDS011;25422;48.286;8.484;2023-01-29T16:07:54;8.65;;;6.40;;
39738;SDS011;25422;48.286;8.484;2023-01-29T16:10:25;9.18;;;6.28;;
39738;SDS011;25422;48.286;8.484;2023-01-29T16:12:53;9.73;;;6.68;;
39738;SDS011;25422;48.286;8.484;2023-01-29T16:15:20;9.02;;;6.05;;
39738;SDS011;25422;48.286;8.484;2023-01-29T16:17:52;11.77;;;7.50;;
39738;SDS011;25422;48.286;8.484;2023-01-29T16:20:20;15.43;;;9.35;;
39738;SDS011;25422;48.286;8.484;2023-01-29T16:22:55;26.15;;;15.10;;
39738;SDS011;25422;48.286;8.484;2023-01-29T16:25:21;54.60;;;24.30;;
39738;SDS011;25422;48.286;8.484;2023-01-29T16:27:47;48.70;;;20.55;;
39738;SDS011;25422;48.286;8.484;2023-01-29T16:30:14;37.70;;;16.00;;
39738;SDS011;25422;48.286;8.484;2023-01-29T16:32:40;43.80;;;18.08;;
39738;SDS011;25422;48.286;8.484;2023-01-29T16:35:06;30.58;;;16.13;;
39738;SDS011;25422;48.286;8.484;2023-01-29T16:37:38;23.50;;;13.40;;
39738;SDS011;25422;48.286;8.484;2023-01-29T16:40:14;26.65;;;14.90;;
39738;SDS011;25422;48.286;8.484;2023-01-29T16:42:56;21.67;;;13.15;;
39738;SDS011;25422;48.286;8.484;2023-01-29T16:46:00;22.65;;;13.52;;
39738;SDS011;25422;48.286;8.484;2023-01-29T16:48:30;30.70;;;16.15;;
39738;SDS011;25422;48.286;8.484;2023-01-29T16:51:04;24.83;;;15.05;;
39738;SDS011;25422;48.286;8.484;2023-01-29T16:53:36;25.43;;;14.77;;
39738;SDS011;25422;48.286;8.484;2023-01-29T16:56:02;31.70;;;16.95;;
39738;SDS011;25422;48.286;8.484;2023-01-29T16:58:31;32.22;;;18.25;;
39738;SDS011;25422;48.286;8.484;2023-01-29T17:00:58;26.25;;;15.20;;
39738;SDS011;25422;48.286;8.484;2023-01-29T17:03:24;24.42;;;14.15;;